Time;durP1;ratioP1;P1;durP2;ratioP2;P2;SDS_P1;SDS_P2;PMS_P1;PMS_P2;Temp;Humidity;BMP_temperature;BMP_pressure;BME280_temperature;BME280_humidity;BME280_pressure;Samples;Min_cycle;Max_cycle;Signal;HPM_P1;HPM_P2
2021/07/28 00:00:32;;;;;;;4.27;3.83;;;;;;;17.98;85.15;99875.38;5049044;28;20224;-79
2021/07/28 00:02:59;;;;;;;4.07;3.77;;;;;;;17.94;85.65;99868.56;5048692;28;20717;-80
2021/07/28 00:05:25;;;;;;;4.20;3.80;;;;;;;17.97;85.28;99878.94;5050219;28;20204;-79
2021/07/28 00:07:51;;;;;;;4.07;3.70;;;;;;;17.93;85.92;99850.16;5048399;28;20205;-78
2021/07/28 00:10:18;;;;;;;4.80;3.90;;;;;;;17.91;85.64;99852.03;5048565;28;20274;-80
2021/07/28 00:12:45;;;;;;;4.47;4.10;;;;;;;17.93;85.41;99872.13;5047839;28;20236;-78
2021/07/28 00:15:13;;;;;;;4.80;3.87;;;;;;;17.93;85.98;99853.63;5049553;28;20286;-80
2021/07/28 00:17:44;;;;;;;4.77;3.50;;;;;;;17.95;85.81;99854.41;5048750;28;20258;-78
2021/07/28 00:20:16;;;;;;;3.90;3.60;;;;;;;17.94;86.03;99844.78;5049487;28;20218;-79
2021/07/28 00:25:27;;;;;;;4.30;3.90;;;;;;;17.88;86.13;99844.28;5048139;28;20276;-78
2021/07/28 00:27:53;;;;;;;4.07;3.77;;;;;;;17.86;86.00;99839.13;5049000;28;20203;-78
2021/07/28 00:30:21;;;;;;;4.27;3.97;;;;;;;17.90;86.32;99831.84;5048505;28;20212;-79
2021/07/28 00:32:47;;;;;;;4.17;3.87;;;;;;;17.86;86.12;99828.56;5047820;28;20375;-78
2021/07/28 00:35:14;;;;;;;4.30;3.90;;;;;;;17.87;86.53;99822.31;5049930;28;20283;-78
2021/07/28 00:37:44;;;;;;;4.20;3.73;;;;;;;17.91;86.54;99821.19;5049549;28;20207;-78
2021/07/28 00:40:12;;;;;;;4.40;4.00;;;;;;;17.90;86.58;99822.16;5048900;28;20219;-78
2021/07/28 00:42:39;;;;;;;4.67;4.27;;;;;;;17.76;86.67;99820.28;5047622;28;20631;-79
2021/07/28 00:45:06;;;;;;;4.00;3.70;;;;;;;17.79;86.51;99824.53;5048878;28;20239;-78
2021/07/28 00:47:34;;;;;;;4.13;3.83;;;;;;;17.80;86.29;99829.72;5047303;28;20204;-79
2021/07/28 00:50:00;;;;;;;4.10;3.70;;;;;;;17.82;85.21;99872.72;5047531;28;20260;-78
2021/07/28 00:52:29;;;;;;;5.03;3.90;;;;;;;17.83;85.06;99874.44;5046734;28;21066;-78
2021/07/28 00:54:55;;;;;;;4.77;4.37;;;;;;;17.77;85.46;99856.28;5046663;28;20263;-78
2021/07/28 00:57:22;;;;;;;4.20;3.77;;;;;;;17.78;84.60;99873.84;5047135;28;20204;-78
2021/07/28 00:59:48;;;;;;;4.13;3.83;;;;;;;17.83;84.78;99877.09;5046482;28;21188;-78
2021/07/28 01:02:15;;;;;;;4.60;4.20;;;;;;;17.85;84.55;99891.06;5045786;28;20241;-78
2021/07/28 01:04:44;;;;;;;4.40;4.00;;;;;;;17.84;84.10;99901.72;5046989;28;20250;-78
2021/07/28 01:07:11;;;;;;;4.87;3.63;;;;;;;17.86;82.98;99932.38;5046683;28;20265;-78
2021/07/28 01:09:37;;;;;;;4.50;3.73;;;;;;;17.86;84.18;99905.97;5046179;28;20200;-78
2021/07/28 01:12:05;;;;;;;4.30;3.60;;;;;;;17.90;83.50;99913.69;5046296;28;20231;-78
2021/07/28 01:14:32;;;;;;;3.70;3.40;;;;;;;17.85;83.69;99909.53;5046276;28;20229;-78
2021/07/28 01:16:59;;;;;;;5.07;3.73;;;;;;;17.86;84.02;99899.84;5046439;28;20207;-78
2021/07/28 01:19:30;;;;;;;4.27;3.67;;;;;;;17.89;84.04;99891.72;5047199;28;20211;-78
2021/07/28 01:22:01;;;;;;;3.90;3.60;;;;;;;17.88;83.35;99927.00;5045765;28;20236;-78
2021/07/28 01:24:30;;;;;;;4.93;3.93;;;;;;;17.86;83.31;99939.47;5046671;28;20202;-78
2021/07/28 01:26:57;;;;;;;5.30;3.73;;;;;;;17.80;83.94;99911.56;5046373;28;20357;-78
2021/07/28 01:29:25;;;;;;;5.47;3.70;;;;;;;17.74;83.82;99909.28;5046419;28;20265;-78
2021/07/28 01:31:54;;;;;;;3.83;3.23;;;;;;;17.70;83.91;99910.41;5044774;28;20222;-78
2021/07/28 01:34:21;;;;;;;3.70;3.40;;;;;;;17.72;84.33;99891.81;5045499;28;20350;-78
2021/07/28 01:36:48;;;;;;;4.43;4.03;;;;;;;17.68;84.31;99888.53;5046486;28;20205;-78
2021/07/28 01:39:15;;;;;;;3.87;3.43;;;;;;;17.64;84.28;99892.25;5046734;28;20225;-78
2021/07/28 01:41:44;;;;;;;4.07;3.70;;;;;;;17.61;84.23;99889.81;5046859;28;20287;-78
2021/07/28 01:44:10;;;;;;;4.77;4.20;;;;;;;17.57;84.10;99906.75;5045806;28;20454;-78
2021/07/28 01:46:36;;;;;;;4.37;3.80;;;;;;;17.52;84.16;99891.19;5047555;28;20264;-78
2021/07/28 01:49:03;;;;;;;4.47;3.70;;;;;;;17.50;84.33;99900.09;5046475;28;20709;-78
2021/07/28 01:51:30;;;;;;;6.80;4.17;;;;;;;17.50;83.12;99943.19;5046990;28;20221;-78
2021/07/28 01:53:56;;;;;;;3.60;3.30;;;;;;;17.47;83.33;99923.09;5047086;28;20233;-79
2021/07/28 01:56:23;;;;;;;4.73;4.27;;;;;;;17.45;83.03;99937.31;5046604;28;20264;-80
2021/07/28 01:58:54;;;;;;;3.13;2.93;;;;;;;17.44;82.97;99952.31;5046800;28;20206;-80
2021/07/28 02:01:21;;;;;;;4.00;3.67;;;;;;;17.35;82.54;99957.25;5046663;28;20238;-80
2021/07/28 02:03:48;;;;;;;4.50;4.10;;;;;;;17.36;83.52;99936.06;5046701;28;20202;-79
2021/07/28 02:06:14;;;;;;;5.43;3.23;;;;;;;17.34;83.40;99937.06;5047159;28;20207;-79
2021/07/28 02:08:41;;;;;;;4.17;3.70;;;;;;;17.35;82.80;99949.31;5047298;28;20205;-80
2021/07/28 02:11:07;;;;;;;3.60;3.40;;;;;;;17.35;82.77;99952.81;5046797;28;20676;-80
2021/07/28 02:13:34;;;;;;;3.67;3.37;;;;;;;17.32;83.50;99933.66;5046805;28;20210;-79
2021/07/28 02:16:01;;;;;;;4.00;3.70;;;;;;;17.23;84.07;99909.47;5047413;28;20225;-79
2021/07/28 02:18:28;;;;;;;4.43;3.77;;;;;;;17.19;84.07;99905.31;5047141;28;20283;-80
2021/07/28 02:20:57;;;;;;;5.37;3.47;;;;;;;17.18;83.94;99918.56;5046696;28;20727;-80
2021/07/28 02:23:23;;;;;;;4.40;3.47;;;;;;;17.18;84.06;99911.50;5047397;28;20210;-80
2021/07/28 02:25:50;;;;;;;4.50;3.83;;;;;;;17.19;83.43;99939.59;5047200;28;20211;-79
2021/07/28 02:28:16;;;;;;;3.60;3.37;;;;;;;17.21;83.05;99966.75;5047552;28;20668;-80
2021/07/28 02:30:43;;;;;;;4.63;3.90;;;;;;;17.22;83.17;99955.28;5047434;28;20207;-79
2021/07/28 02:33:10;;;;;;;3.83;3.53;;;;;;;17.19;83.02;99954.59;5046115;28;20221;-79
2021/07/28 02:35:37;;;;;;;3.87;3.57;;;;;;;17.17;83.59;99940.63;5047326;28;20238;-79
2021/07/28 02:38:04;;;;;;;4.30;3.60;;;;;;;17.14;84.09;99920.53;5047801;28;20206;-80
2021/07/28 02:40:30;;;;;;;6.20;4.40;;;;;;;17.11;84.08;99928.63;5046383;28;20287;-80
2021/07/28 02:42:57;;;;;;;5.07;3.80;;;;;;;17.09;84.31;99922.59;5045908;28;21060;-80
2021/07/28 02:45:23;;;;;;;3.97;3.67;;;;;;;17.09;84.03;99921.75;5047143;28;20201;-80
2021/07/28 02:47:50;;;;;;;4.23;3.83;;;;;;;17.09;83.70;99945.47;5046786;28;20208;-80
2021/07/28 02:50:18;;;;;;;4.40;3.97;;;;;;;17.09;83.91;99943.69;5050850;28;20209;-79
2021/07/28 02:52:44;;;;;;;5.90;4.13;;;;;;;17.06;83.97;99935.91;5049616;28;20229;-79
2021/07/28 02:55:12;;;;;;;4.20;3.20;;;;;;;17.04;84.11;99937.78;5050466;28;20827;-80
2021/07/28 02:57:39;;;;;;;3.63;3.40;;;;;;;17.00;83.91;99947.63;5049599;28;20218;-81
2021/07/28 03:00:07;;;;;;;9.07;3.60;;;;;;;16.98;83.94;99940.75;5050243;28;20210;-79
2021/07/28 03:02:34;;;;;;;3.87;3.60;;;;;;;16.98;83.99;99935.47;5048617;28;20233;-79
2021/07/28 03:05:00;;;;;;;4.70;3.87;;;;;;;16.99;84.27;99927.50;5050231;28;20256;-79
2021/07/28 03:07:28;;;;;;;3.27;2.97;;;;;;;16.94;84.76;99911.06;5049636;28;20210;-79
2021/07/28 03:09:55;;;;;;;4.87;3.27;;;;;;;16.91;84.51;99931.47;5050278;28;20208;-79
2021/07/28 03:12:21;;;;;;;4.00;3.70;;;;;;;16.86;84.85;99918.53;5049570;28;20292;-80
2021/07/28 03:14:47;;;;;;;4.70;3.87;;;;;;;16.83;85.03;99908.16;5047511;28;20237;-79
2021/07/28 03:17:16;;;;;;;4.90;3.63;;;;;;;16.77;85.56;99890.00;5049931;28;20209;-80
2021/07/28 03:19:42;;;;;;;4.10;3.70;;;;;;;16.73;85.66;99888.44;5049745;28;21175;-80
2021/07/28 03:22:09;;;;;;;3.97;3.67;;;;;;;16.71;85.43;99888.56;5049462;28;20230;-80
2021/07/28 03:24:37;;;;;;;6.47;3.87;;;;;;;16.66;85.70;99888.78;5050157;28;20211;-79
2021/07/28 03:27:03;;;;;;;3.87;3.50;;;;;;;16.68;85.64;99891.34;5049813;28;21009;-79
2021/07/28 03:29:30;;;;;;;3.93;3.53;;;;;;;16.65;85.80;99889.72;5049231;28;20691;-79
2021/07/28 03:31:57;;;;;;;3.90;3.60;;;;;;;16.64;85.72;99893.28;5049581;28;20262;-79
2021/07/28 03:34:23;;;;;;;5.07;3.50;;;;;;;16.61;86.14;99877.66;5048919;28;20206;-79
2021/07/28 03:36:51;;;;;;;4.07;3.77;;;;;;;16.52;85.91;99886.03;5049046;28;20209;-79
2021/07/28 03:39:18;;;;;;;3.83;3.40;;;;;;;16.53;86.21;99886.88;5050168;28;20201;-80
2021/07/28 03:41:46;;;;;;;4.10;3.70;;;;;;;16.51;85.77;99892.25;5049163;28;21276;-80
2021/07/28 03:44:12;;;;;;;4.00;3.70;;;;;;;16.47;86.57;99866.97;5047253;28;20987;-79
2021/07/28 03:46:38;;;;;;;3.80;3.50;;;;;;;16.42;86.70;99855.84;5049982;28;20210;-80
2021/07/28 03:49:05;;;;;;;4.20;3.80;;;;;;;16.51;87.10;99849.22;5049412;28;20209;-79
2021/07/28 03:51:31;;;;;;;3.70;3.40;;;;;;;16.53;86.87;99853.50;5049504;28;20260;-79
2021/07/28 03:53:58;;;;;;;3.80;3.33;;;;;;;16.53;86.17;99873.69;5048046;28;20890;-80
2021/07/28 03:56:24;;;;;;;3.93;3.63;;;;;;;16.48;86.64;99859.00;5049600;28;20274;-80
2021/07/28 03:58:53;;;;;;;4.47;3.97;;;;;;;16.51;86.03;99878.19;5048561;28;20209;-80
2021/07/28 04:01:21;;;;;;;3.77;3.47;;;;;;;16.48;85.86;99874.78;5049202;28;20297;-79
2021/07/28 04:03:47;;;;;;;4.60;4.13;;;;;;;16.52;85.92;99872.00;5048250;28;20216;-79
2021/07/28 04:06:14;;;;;;;3.90;3.60;;;;;;;16.48;85.90;99879.22;5049962;28;20222;-80
2021/07/28 04:08:40;;;;;;;3.93;3.63;;;;;;;16.52;86.03;99869.38;5049115;28;20272;-79
2021/07/28 04:11:07;;;;;;;5.43;3.70;;;;;;;16.45;86.17;99860.94;5048415;28;20205;-80
2021/07/28 04:13:33;;;;;;;4.27;3.50;;;;;;;16.46;86.74;99845.03;5047870;28;20206;-80
2021/07/28 04:16:01;;;;;;;6.83;4.00;;;;;;;16.40;86.88;99842.75;5048751;28;20233;-80
2021/07/28 04:18:28;;;;;;;4.67;3.70;;;;;;;16.45;86.47;99850.38;5049211;28;20213;-80
2021/07/28 04:20:54;;;;;;;3.70;3.40;;;;;;;16.49;86.51;99846.69;5049080;28;20198;-80
2021/07/28 04:23:20;;;;;;;5.60;4.87;;;;;;;16.52;86.15;99859.69;5047808;28;20247;-80
2021/07/28 04:25:47;;;;;;;4.40;4.00;;;;;;;16.52;85.75;99861.47;5047521;28;20228;-81
2021/07/28 04:28:13;;;;;;;4.50;3.17;;;;;;;16.50;85.90;99866.81;5048783;28;20216;-80
2021/07/28 04:30:40;;;;;;;4.10;3.80;;;;;;;16.50;86.37;99861.53;5049384;28;20611;-79
2021/07/28 04:33:07;;;;;;;4.37;3.97;;;;;;;16.53;86.49;99832.41;5046951;28;20248;-80
2021/07/28 04:35:34;;;;;;;4.00;3.63;;;;;;;16.53;86.66;99834.19;5046769;28;20764;-80
2021/07/28 04:38:01;;;;;;;5.07;4.57;;;;;;;16.56;86.54;99829.59;5046446;28;20224;-80
2021/07/28 04:40:27;;;;;;;4.00;3.63;;;;;;;16.60;86.23;99844.31;5046294;28;20218;-79
2021/07/28 04:42:54;;;;;;;4.10;3.80;;;;;;;16.62;86.33;99839.81;5045473;28;20276;-79
2021/07/28 04:45:20;;;;;;;4.37;3.97;;;;;;;16.64;86.15;99853.75;5046829;28;20606;-79
2021/07/28 04:47:47;;;;;;;5.63;4.60;;;;;;;16.61;85.79;99864.47;5046580;28;20209;-79
2021/07/28 04:50:14;;;;;;;4.87;4.30;;;;;;;16.64;86.02;99847.63;5045815;28;20255;-79
2021/07/28 04:52:41;;;;;;;4.77;4.30;;;;;;;16.66;85.74;99862.44;5044713;28;20271;-79
2021/07/28 04:55:08;;;;;;;7.87;4.37;;;;;;;16.68;86.23;99828.94;5046118;28;20233;-79
2021/07/28 04:57:35;;;;;;;5.07;4.77;;;;;;;16.77;87.19;99811.78;5045771;28;20202;-80
2021/07/28 05:00:02;;;;;;;8.30;4.63;;;;;;;16.82;86.55;99828.22;5045834;28;20205;-79
2021/07/28 05:02:28;;;;;;;5.00;4.50;;;;;;;16.79;85.92;99851.25;5044410;28;20225;-80
2021/07/28 05:04:54;;;;;;;4.83;4.37;;;;;;;16.82;86.17;99837.91;5045972;28;20261;-80
2021/07/28 05:07:22;;;;;;;4.33;4.03;;;;;;;16.86;86.14;99839.44;5045895;28;20202;-80
2021/07/28 05:09:49;;;;;;;4.73;4.33;;;;;;;16.89;86.18;99844.56;5045760;28;20255;-80
2021/07/28 05:12:15;;;;;;;5.40;4.23;;;;;;;16.87;86.58;99828.81;5043583;28;20235;-79
2021/07/28 05:14:41;;;;;;;4.67;4.27;;;;;;;16.91;87.06;99824.25;5045804;28;20347;-80
2021/07/28 05:17:08;;;;;;;4.30;3.90;;;;;;;16.94;86.47;99839.88;5045392;28;20287;-80
2021/07/28 05:19:34;;;;;;;4.70;4.40;;;;;;;16.98;86.48;99846.69;5044945;28;20208;-80
2021/07/28 05:22:01;;;;;;;5.17;4.80;;;;;;;17.04;86.01;99864.78;5044211;28;20640;-79
2021/07/28 05:24:28;;;;;;;5.23;4.83;;;;;;;17.07;86.22;99859.38;5045202;28;20205;-80
2021/07/28 05:26:55;;;;;;;4.07;3.77;;;;;;;17.07;87.37;99825.09;5045216;28;20225;-79
2021/07/28 05:29:21;;;;;;;4.90;4.40;;;;;;;17.10;85.82;99866.25;5044581;28;20214;-80
2021/07/28 05:31:48;;;;;;;4.07;3.70;;;;;;;17.13;86.35;99852.91;5045268;28;20233;-80
2021/07/28 05:34:14;;;;;;;4.40;4.00;;;;;;;17.04;87.47;99804.16;5044534;28;20235;-80
2021/07/28 05:36:40;;;;;;;6.53;4.10;;;;;;;17.11;87.79;99796.75;5044864;28;20232;-79
2021/07/28 05:39:07;;;;;;;3.90;3.70;;;;;;;17.09;87.01;99832.06;5044043;28;20203;-79
2021/07/28 05:41:35;;;;;;;4.80;4.30;;;;;;;17.09;85.86;99874.28;5043358;28;22019;-79
2021/07/28 05:44:07;;;;;;;5.30;4.90;;;;;;;17.11;87.20;99849.50;5043142;28;20582;-79
2021/07/28 05:46:33;;;;;;;5.20;4.27;;;;;;;17.12;87.85;99809.00;5043241;28;20205;-79
2021/07/28 05:49:00;;;;;;;4.50;4.10;;;;;;;17.20;86.28;99869.22;5042666;28;20209;-80
2021/07/28 05:51:26;;;;;;;4.90;4.60;;;;;;;17.31;87.73;99819.38;5042599;28;20226;-80
2021/07/28 05:53:52;;;;;;;5.63;4.17;;;;;;;17.33;86.28;99880.81;5044134;28;20259;-80
2021/07/28 05:56:19;;;;;;;4.70;4.30;;;;;;;17.37;87.67;99829.56;5044158;28;20314;-80
2021/07/28 05:58:47;;;;;;;4.30;3.90;;;;;;;17.46;87.76;99810.59;5044454;28;20718;-80
2021/07/28 06:01:13;;;;;;;4.93;4.63;;;;;;;17.47;87.88;99824.63;5046474;28;20225;-79
2021/07/28 06:03:39;;;;;;;5.00;4.60;;;;;;;17.48;84.52;99947.69;5044893;28;20210;-81
2021/07/28 06:06:06;;;;;;;4.83;4.40;;;;;;;17.49;83.35;99982.88;5045638;28;20224;-80
2021/07/28 06:08:32;;;;;;;6.53;4.13;;;;;;;17.50;82.43;100011.78;5045881;28;20219;-79
2021/07/28 06:10:59;;;;;;;4.47;4.07;;;;;;;17.60;83.05;99998.94;5045782;28;20260;-79
2021/07/28 06:13:25;;;;;;;4.80;4.30;;;;;;;17.69;83.41;99981.75;5044941;28;20209;-79
2021/07/28 06:15:53;;;;;;;6.23;4.67;;;;;;;17.78;84.71;99921.38;5047410;28;20302;-80
2021/07/28 06:18:19;;;;;;;4.93;4.53;;;;;;;17.77;82.73;100012.06;5047777;28;20264;-80
2021/07/28 06:20:46;;;;;;;4.97;4.47;;;;;;;17.82;82.33;100023.22;5047229;28;20213;-80
2021/07/28 06:23:12;;;;;;;4.73;4.33;;;;;;;17.93;82.40;100019.16;5047842;28;20262;-80
2021/07/28 06:25:38;;;;;;;4.80;4.40;;;;;;;17.99;81.35;100054.00;5052415;28;20210;-80
2021/07/28 06:28:05;;;;;;;5.43;4.07;;;;;;;18.06;81.32;100058.00;5051472;28;20270;-80
2021/07/28 06:30:32;;;;;;;5.73;4.53;;;;;;;18.03;79.72;100100.41;5051775;28;20218;-78
2021/07/28 06:33:00;;;;;;;4.73;4.30;;;;;;;18.14;79.96;100106.94;5050428;28;20319;-78
2021/07/28 06:35:26;;;;;;;6.13;4.57;;;;;;;18.24;80.23;100108.94;5052687;28;20212;-79
2021/07/28 06:37:53;;;;;;;4.83;4.23;;;;;;;18.30;80.46;100086.63;5052255;28;20212;-79
2021/07/28 06:40:19;;;;;;;4.27;3.97;;;;;;;18.30;77.47;100168.53;5051490;28;20221;-80
2021/07/28 06:42:46;;;;;;;4.30;4.00;;;;;;;18.22;77.41;100207.75;5046373;28;20719;-79
2021/07/28 06:45:13;;;;;;;5.40;4.43;;;;;;;18.33;77.30;100204.50;5050203;28;20626;-79
2021/07/28 06:47:39;;;;;;;4.70;4.30;;;;;;;18.41;77.32;100208.44;5051273;28;20276;-78
2021/07/28 06:50:08;;;;;;;4.70;4.30;;;;;;;18.48;77.10;100201.00;5050225;28;20254;-79
2021/07/28 06:52:34;;;;;;;4.53;4.20;;;;;;;18.54;76.31;100224.47;5049887;28;20227;-79
2021/07/28 06:55:01;;;;;;;4.57;4.10;;;;;;;18.63;77.11;100205.44;5052526;28;20215;-79
2021/07/28 06:57:29;;;;;;;5.53;4.23;;;;;;;18.68;76.86;100199.06;5050543;28;20224;-78
2021/07/28 06:59:55;;;;;;;4.67;4.27;;;;;;;18.82;77.93;100167.41;5049664;28;20212;-78
2021/07/28 07:02:22;;;;;;;4.50;4.10;;;;;;;18.88;76.91;100219.94;5049127;28;20594;-80
2021/07/28 07:04:48;;;;;;;5.80;4.30;;;;;;;18.89;76.41;100231.38;5050834;28;20204;-79
2021/07/28 07:07:16;;;;;;;4.27;3.87;;;;;;;18.78;76.14;100243.38;5050635;28;20686;-79
2021/07/28 07:09:43;;;;;;;4.73;4.43;;;;;;;18.81;75.82;100253.84;5050390;28;20253;-82
2021/07/28 07:12:09;;;;;;;5.30;4.90;;;;;;;18.68;75.31;100275.72;5047322;28;20303;-78
2021/07/28 07:14:36;;;;;;;5.00;4.60;;;;;;;18.74;76.40;100233.06;5048760;28;20262;-78
2021/07/28 07:17:03;;;;;;;4.83;4.43;;;;;;;18.65;75.73;100251.16;5048224;28;20605;-79
2021/07/28 07:19:30;;;;;;;4.53;4.23;;;;;;;18.67;75.58;100237.84;5048470;28;20223;-78
2021/07/28 07:21:56;;;;;;;4.70;4.40;;;;;;;18.80;76.71;100215.09;5047750;28;20223;-78
2021/07/28 07:24:24;;;;;;;4.67;4.27;;;;;;;18.90;76.02;100244.50;5048728;28;20258;-78
2021/07/28 07:26:51;;;;;;;5.03;4.57;;;;;;;19.09;76.43;100235.50;5047526;28;20895;-78
2021/07/28 07:29:17;;;;;;;4.93;4.47;;;;;;;19.17;76.59;100222.72;5046872;28;20209;-79
2021/07/28 07:31:43;;;;;;;4.77;4.47;;;;;;;19.15;75.39;100288.09;5046325;28;20234;-78
2021/07/28 07:34:10;;;;;;;4.57;4.13;;;;;;;18.97;74.97;100300.59;5045066;28;20242;-78
2021/07/28 07:36:36;;;;;;;5.90;4.90;;;;;;;18.99;75.87;100253.75;5045756;28;20642;-78
2021/07/28 07:39:03;;;;;;;4.77;4.47;;;;;;;19.06;75.58;100260.38;5046182;28;20216;-78
2021/07/28 07:41:31;;;;;;;4.60;4.07;;;;;;;18.98;75.61;100279.31;5048173;28;20284;-79
2021/07/28 07:43:58;;;;;;;4.97;4.57;;;;;;;18.79;76.06;100257.44;5046354;28;20636;-79
2021/07/28 07:46:25;;;;;;;6.93;4.93;;;;;;;18.80;76.70;100230.13;5046933;28;20210;-78
2021/07/28 07:48:52;;;;;;;4.43;4.10;;;;;;;18.96;77.50;100204.47;5047848;28;20211;-78
2021/07/28 07:51:18;;;;;;;4.50;4.20;;;;;;;18.92;76.84;100232.06;5047967;28;20582;-79
2021/07/28 07:53:44;;;;;;;4.67;4.37;;;;;;;19.04;76.92;100215.47;5047691;28;20275;-79
2021/07/28 07:56:12;;;;;;;4.37;4.07;;;;;;;19.09;76.47;100241.69;5047860;28;20236;-78
2021/07/28 07:58:40;;;;;;;5.20;4.70;;;;;;;19.21;76.41;100240.13;5047645;28;20201;-78
2021/07/28 08:01:07;;;;;;;4.97;4.57;;;;;;;19.26;75.48;100277.75;5047078;28;20697;-79
2021/07/28 08:03:34;;;;;;;4.87;4.40;;;;;;;19.41;75.66;100265.44;5046213;28;20238;-79
2021/07/28 08:06:00;;;;;;;4.60;4.20;;;;;;;19.52;74.95;100289.44;5047519;28;20213;-78
2021/07/28 08:08:26;;;;;;;4.90;4.50;;;;;;;19.46;73.96;100350.69;5047425;28;20261;-79
2021/07/28 08:10:55;;;;;;;4.63;4.33;;;;;;;19.54;74.39;100326.44;5046875;28;20232;-79
2021/07/28 08:13:21;;;;;;;4.80;4.50;;;;;;;19.65;74.42;100305.50;5046101;28;20204;-79
2021/07/28 08:15:49;;;;;;;4.93;4.53;;;;;;;19.41;72.24;100392.50;5046238;28;20220;-78
2021/07/28 08:18:16;;;;;;;4.77;4.47;;;;;;;19.51;73.44;100353.09;5047303;28;20262;-78
2021/07/28 08:20:42;;;;;;;4.97;4.67;;;;;;;19.62;73.52;100340.97;5047715;28;20212;-78
2021/07/28 08:23:09;;;;;;;6.17;5.57;;;;;;;19.49;71.73;100402.66;5045540;28;20240;-78
2021/07/28 08:25:35;;;;;;;6.03;5.43;;;;;;;19.17;73.58;100345.28;5048037;28;20213;-78
2021/07/28 08:28:02;;;;;;;5.80;5.33;;;;;;;19.27;74.11;100302.44;5045408;28;20702;-79
2021/07/28 08:30:28;;;;;;;5.50;5.10;;;;;;;19.34;74.14;100319.66;5046419;28;20209;-78
2021/07/28 08:32:56;;;;;;;6.13;5.53;;;;;;;19.32;74.67;100295.91;5045142;28;20231;-78
2021/07/28 08:35:22;;;;;;;6.10;5.50;;;;;;;19.38;74.72;100292.06;5045530;28;20677;-77
2021/07/28 08:37:49;;;;;;;6.03;5.43;;;;;;;19.35;73.99;100308.97;5045875;28;20310;-77
2021/07/28 08:40:17;;;;;;;5.97;5.47;;;;;;;19.47;74.31;100302.13;5046546;28;20225;-78
2021/07/28 08:42:47;;;;;;;6.00;5.53;;;;;;;19.54;74.56;100273.47;5045769;28;20231;-78
2021/07/28 08:45:14;;;;;;;5.70;5.20;;;;;;;19.57;73.65;100339.50;5045348;28;20214;-79
2021/07/28 08:47:42;;;;;;;6.87;5.10;;;;;;;19.68;73.73;100294.69;5045925;28;20208;-78
2021/07/28 08:50:12;;;;;;;5.43;5.00;;;;;;;19.78;73.54;100325.06;5047136;28;20242;-78
2021/07/28 08:52:39;;;;;;;5.23;4.83;;;;;;;19.64;73.10;100343.50;5045820;28;20220;-78
2021/07/28 08:55:07;;;;;;;4.90;4.60;;;;;;;19.78;74.39;100272.06;5046408;28;20241;-78
2021/07/28 08:57:34;;;;;;;4.93;4.63;;;;;;;19.73;73.84;100283.88;5046375;28;20567;-79
2021/07/28 09:00:01;;;;;;;4.90;4.50;;;;;;;19.85;74.29;100261.94;5045784;28;20202;-79
2021/07/28 09:02:28;;;;;;;6.33;4.87;;;;;;;19.83;73.03;100335.38;5044623;28;20803;-79
2021/07/28 09:04:55;;;;;;;4.97;4.60;;;;;;;19.92;71.87;100316.28;5046617;28;20207;-78
2021/07/28 09:07:23;;;;;;;4.97;4.47;;;;;;;20.12;71.89;100364.56;5046459;28;20212;-78
2021/07/28 09:09:51;;;;;;;5.13;4.60;;;;;;;20.29;71.17;100398.00;5046856;28;20204;-80
2021/07/28 09:12:17;;;;;;;4.80;4.50;;;;;;;20.46;70.46;100412.91;5045147;28;20233;-80
2021/07/28 09:14:52;;;;;;;4.87;4.37;;;;;;;20.40;69.43;100457.41;5045799;28;20205;-79
2021/07/28 09:17:24;;;;;;;4.80;4.50;;;;;;;20.57;71.09;100381.25;5045621;28;20216;-79
2021/07/28 09:19:51;;;;;;;4.67;4.27;;;;;;;20.68;71.15;100381.50;5047050;28;20207;-79
2021/07/28 09:22:19;;;;;;;4.40;4.00;;;;;;;20.75;68.89;100488.06;5041172;28;20228;-78
2021/07/28 09:25:05;;;;;;;4.43;4.10;;;;;;;20.81;70.10;100427.56;5043903;28;20214;-78
2021/07/28 09:27:39;;;;;;;6.23;3.90;;;;;;;20.87;68.85;100478.50;5043380;28;20224;-79
2021/07/28 09:30:06;;;;;;;4.47;3.90;;;;;;;20.90;68.54;100504.88;5043674;28;20896;-78
2021/07/28 09:32:35;;;;;;;4.47;4.17;;;;;;;20.86;68.24;100513.97;5042718;28;20233;-78
2021/07/28 09:35:02;;;;;;;4.57;3.80;;;;;;;20.86;68.52;100501.53;5043157;28;20323;-78
2021/07/28 09:37:28;;;;;;;4.33;3.93;;;;;;;20.79;68.46;100497.53;5043032;28;20320;-78
2021/07/28 09:39:57;;;;;;;5.43;3.77;;;;;;;20.87;67.85;100529.81;5043316;28;20212;-78
2021/07/28 09:42:27;;;;;;;5.70;4.47;;;;;;;20.71;67.06;100553.72;5041146;28;20232;-78
2021/07/28 09:44:56;;;;;;;4.80;4.40;;;;;;;20.70;67.62;100524.66;5042186;28;20267;-78
2021/07/28 09:47:24;;;;;;;4.43;4.03;;;;;;;20.80;66.83;100539.06;5043025;28;20209;-78
2021/07/28 09:50:11;;;;;;;4.10;3.80;;;;;;;20.96;67.05;100549.63;5041243;28;20208;-78
2021/07/28 09:52:38;;;;;;;9.40;4.27;;;;;;;21.09;67.25;100526.69;5040316;28;20228;-78
2021/07/28 09:55:24;;;;;;;4.37;4.07;;;;;;;21.23;66.07;100571.81;5041666;28;20221;-78
2021/07/28 09:57:54;;;;;;;4.33;4.07;;;;;;;21.40;65.22;100607.94;5042900;28;20264;-78
2021/07/28 10:00:20;;;;;;;4.10;3.67;;;;;;;21.66;65.31;100594.03;5045378;28;20212;-78
2021/07/28 10:02:48;;;;;;;4.17;3.87;;;;;;;21.73;63.66;100625.44;5045426;28;20228;-78
2021/07/28 10:05:18;;;;;;;4.30;3.93;;;;;;;21.74;63.42;100663.47;5047730;28;20298;-78
2021/07/28 10:07:45;;;;;;;4.40;4.10;;;;;;;21.84;64.69;100615.94;5048594;28;20197;-77
2021/07/28 10:10:13;;;;;;;4.30;4.00;;;;;;;21.94;65.51;100551.47;5047261;28;20618;-77
2021/07/28 10:12:42;;;;;;;4.87;4.47;;;;;;;22.01;64.54;100597.09;5045824;28;20280;-77
2021/07/28 10:15:09;;;;;;;7.73;4.17;;;;;;;22.15;65.38;100562.50;5047839;28;20270;-77
2021/07/28 10:17:39;;;;;;;5.13;4.00;;;;;;;21.82;61.79;100722.31;5047853;28;20315;-77
2021/07/28 10:20:07;;;;;;;3.77;3.47;;;;;;;21.95;62.98;100642.69;5046869;28;20239;-78
2021/07/28 10:22:34;;;;;;;4.07;3.77;;;;;;;21.98;61.22;100655.75;5046925;28;20723;-78
2021/07/28 10:25:01;;;;;;;4.27;3.97;;;;;;;22.06;61.46;100712.00;5048201;28;20262;-77
2021/07/28 10:27:28;;;;;;;3.87;3.53;;;;;;;22.14;61.34;100695.53;5046783;28;20205;-78
2021/07/28 10:29:56;;;;;;;3.67;3.40;;;;;;;22.10;60.48;100718.81;5045524;28;20643;-77
2021/07/28 10:32:31;;;;;;;3.40;3.20;;;;;;;22.34;60.28;100752.84;5046866;28;20237;-78
2021/07/28 10:35:23;;;;;;;3.60;3.30;;;;;;;22.70;63.83;100610.38;5047446;28;20257;-77
2021/07/28 10:37:50;;;;;;;3.73;3.43;;;;;;;22.71;57.92;100827.63;5048873;28;20216;-78
2021/07/28 10:40:32;;;;;;;5.40;3.67;;;;;;;22.93;59.44;100758.78;5048166;28;20221;-78
2021/07/28 10:43:02;;;;;;;3.37;3.17;;;;;;;22.48;57.01;100908.94;5046441;28;20238;-78
2021/07/28 10:45:53;;;;;;;3.67;3.47;;;;;;;22.69;57.27;100854.34;5046452;28;20212;-78
2021/07/28 10:48:51;;;;;;;3.40;3.10;;;;;;;22.99;57.93;100816.94;5047933;28;20209;-78
2021/07/28 10:51:53;;;;;;;3.30;3.00;;;;;;;22.87;56.03;100910.88;5047923;28;20589;-78
2021/07/28 10:54:46;;;;;;;2.90;2.70;;;;;;;22.51;56.20;100896.25;5048193;28;20551;-78
2021/07/28 10:58:07;;;;;;;3.20;2.90;;;;;;;22.72;58.95;100765.50;5047719;28;20241;-79
2021/07/28 11:00:52;;;;;;;3.60;3.30;;;;;;;22.88;60.27;100710.28;5046426;28;20204;-78
2021/07/28 11:03:19;;;;;;;3.30;3.10;;;;;;;22.98;60.23;100738.00;5047592;28;20239;-78
2021/07/28 11:05:49;;;;;;;3.53;3.23;;;;;;;23.03;59.58;100743.03;5049749;28;20921;-78
2021/07/28 11:08:19;;;;;;;3.40;2.93;;;;;;;22.89;59.06;100759.06;5048001;28;20244;-78
2021/07/28 11:10:58;;;;;;;3.20;2.90;;;;;;;22.88;57.57;100814.09;5047354;28;20226;-79
2021/07/28 11:13:26;;;;;;;2.67;2.47;;;;;;;22.91;56.45;100882.25;5046809;28;20197;-78
2021/07/28 11:15:57;;;;;;;2.93;2.50;;;;;;;22.94;55.62;100900.72;5048104;28;20295;-77
2021/07/28 11:18:36;;;;;;;2.53;2.33;;;;;;;23.12;55.87;100880.09;5048380;28;20236;-79
2021/07/28 11:21:11;;;;;;;2.53;2.37;;;;;;;23.40;54.82;100887.97;5048510;28;20682;-78
2021/07/28 11:23:46;;;;;;;2.73;2.63;;;;;;;23.51;55.93;100913.06;5045792;28;20270;-77
2021/07/28 11:26:21;;;;;;;4.37;2.70;;;;;;;23.64;56.41;100844.66;5048180;28;20204;-78
2021/07/28 11:28:48;;;;;;;3.33;2.63;;;;;;;23.42;54.41;100932.31;5048014;28;20284;-78
2021/07/28 11:31:23;;;;;;;13.87;2.90;;;;;;;23.49;55.13;100899.84;5048341;28;20240;-77
2021/07/28 11:33:50;;;;;;;2.40;2.30;;;;;;;23.64;55.41;100851.81;5045967;28;20213;-78
2021/07/28 11:36:18;;;;;;;3.17;2.97;;;;;;;23.80;55.84;100847.16;5047819;28;20211;-78